sensor_id;sensor_type;location;lat;lon;timestamp;pressure;altitude;pressure_sealevel;temperature;humidity
51249;BME280;39642;47.556;18.728;2023-02-11T00:00:13;101576.06;;;22.00;22.51
51249;BME280;39642;47.556;18.728;2023-02-11T00:02:39;101575.19;;;21.99;22.78
51249;BME280;39642;47.556;18.728;2023-02-11T00:05:05;101579.59;;;22.00;22.93
51249;BME280;39642;47.556;18.728;2023-02-11T00:07:33;101579.59;;;22.00;23.11
51249;BME280;39642;47.556;18.728;2023-02-11T00:09:59;101576.94;;;22.00;23.42
51249;BME280;39642;47.556;18.728;2023-02-11T00:12:25;101572.47;;;22.01;23.79
51249;BME280;39642;47.556;18.728;2023-02-11T00:14:51;101566.31;;;22.00;23.90
51249;BME280;39642;47.556;18.728;2023-02-11T00:17:16;101564.56;;;21.99;23.94
51249;BME280;39642;47.556;18.728;2023-02-11T00:19:42;101564.56;;;21.99;23.90
51249;BME280;39642;47.556;18.728;2023-02-11T00:22:08;101557.56;;;21.98;23.88
51249;BME280;39642;47.556;18.728;2023-02-11T00:24:35;101556.69;;;21.98;23.99
51249;BME280;39642;47.556;18.728;2023-02-11T00:27:01;101562.91;;;21.97;23.87
51249;BME280;39642;47.556;18.728;2023-02-11T00:29:27;101556.75;;;21.96;23.78
51249;BME280;39642;47.556;18.728;2023-02-11T00:31:53;101553.22;;;21.96;23.77
51249;BME280;39642;47.556;18.728;2023-02-11T00:34:19;101547.09;;;21.94;23.74
51249;BME280;39642;47.556;18.728;2023-02-11T00:36:45;101544.50;;;21.92;23.59
51249;BME280;39642;47.556;18.728;2023-02-11T00:39:11;101552.47;;;21.92;23.86
51249;BME280;39642;47.556;18.728;2023-02-11T00:41:37;101540.12;;;21.91;23.95
51249;BME280;39642;47.556;18.728;2023-02-11T00:44:03;101547.19;;;21.91;23.74
51249;BME280;39642;47.556;18.728;2023-02-11T00:46:29;101548.13;;;21.90;23.71
51249;BME280;39642;47.556;18.728;2023-02-11T00:48:54;101547.28;;;21.89;24.00
51249;BME280;39642;47.556;18.728;2023-02-11T00:51:26;101552.59;;;21.89;24.00
51249;BME280;39642;47.556;18.728;2023-02-11T00:53:52;101542.88;;;21.88;23.96
51249;BME280;39642;47.556;18.728;2023-02-11T00:56:19;101540.22;;;21.88;23.89
51249;BME280;39642;47.556;18.728;2023-02-11T00:58:44;101538.50;;;21.87;23.83
51249;BME280;39642;47.556;18.728;2023-02-11T01:01:11;101538.50;;;21.87;23.82
51249;BME280;39642;47.556;18.728;2023-02-11T01:03:38;101537.56;;;21.88;23.72
51249;BME280;39642;47.556;18.728;2023-02-11T01:06:05;101538.47;;;21.89;23.74
51249;BME280;39642;47.556;18.728;2023-02-11T01:08:31;101525.22;;;21.89;23.58
51249;BME280;39642;47.556;18.728;2023-02-11T01:11:02;101516.31;;;21.90;23.07
51249;BME280;39642;47.556;18.728;2023-02-11T01:13:31;101515.37;;;21.91;22.54
51249;BME280;39642;47.556;18.728;2023-02-11T01:15:57;101515.34;;;21.92;22.18
51249;BME280;39642;47.556;18.728;2023-02-11T01:18:24;101514.44;;;21.93;22.28
51249;BME280;39642;47.556;18.728;2023-02-11T01:20:51;101506.38;;;21.95;22.26
51249;BME280;39642;47.556;18.728;2023-02-11T01:23:18;101498.44;;;21.95;22.10
51249;BME280;39642;47.556;18.728;2023-02-11T01:25:44;101502.84;;;21.96;21.82
51249;BME280;39642;47.556;18.728;2023-02-11T01:28:22;101500.09;;;21.97;21.92
51249;BME280;39642;47.556;18.728;2023-02-11T01:30:48;101501.84;;;21.98;21.85
51249;BME280;39642;47.556;18.728;2023-02-11T01:33:14;101501.81;;;22.00;21.77
51249;BME280;39642;47.556;18.728;2023-02-11T01:35:40;101499.16;;;22.00;21.63
51249;BME280;39642;47.556;18.728;2023-02-11T01:38:08;101493.75;;;22.01;21.63
51249;BME280;39642;47.556;18.728;2023-02-11T01:40:38;101496.38;;;22.03;22.01
51249;BME280;39642;47.556;18.728;2023-02-11T01:43:05;101488.38;;;22.04;21.65
51249;BME280;39642;47.556;18.728;2023-02-11T01:46:05;101484.81;;;22.04;22.00
51249;BME280;39642;47.556;18.728;2023-02-11T01:48:41;101483.06;;;22.04;21.91
51249;BME280;39642;47.556;18.728;2023-02-11T01:51:13;101480.31;;;22.06;21.65
51249;BME280;39642;47.556;18.728;2023-02-11T01:53:42;101489.19;;;22.07;21.86
51249;BME280;39642;47.556;18.728;2023-02-11T01:56:29;101493.59;;;22.06;22.03
51249;BME280;39642;47.556;18.728;2023-02-11T01:59:19;101491.81;;;22.07;21.83
51249;BME280;39642;47.556;18.728;2023-02-11T02:01:52;101486.53;;;22.07;21.77
51249;BME280;39642;47.556;18.728;2023-02-11T02:04:22;101491.81;;;22.07;21.87
51249;BME280;39642;47.556;18.728;2023-02-11T02:07:01;101493.53;;;22.08;22.10
51249;BME280;39642;47.556;18.728;2023-02-11T02:09:34;101491.81;;;22.07;21.98
51249;BME280;39642;47.556;18.728;2023-02-11T02:12:01;101486.53;;;22.07;22.58
51249;BME280;39642;47.556;18.728;2023-02-11T02:14:27;101481.22;;;22.07;22.24
51249;BME280;39642;47.556;18.728;2023-02-11T02:16:53;101482.13;;;22.06;22.97
51249;BME280;39642;47.556;18.728;2023-02-11T02:22:28;101483.06;;;22.04;23.12
51249;BME280;39642;47.556;18.728;2023-02-11T02:25:17;101475.09;;;22.04;23.36
51249;BME280;39642;47.556;18.728;2023-02-11T02:28:12;101483.06;;;22.04;23.55
51249;BME280;39642;47.556;18.728;2023-02-11T02:33:44;101474.28;;;22.02;23.63
51249;BME280;39642;47.556;18.728;2023-02-11T02:36:21;101474.28;;;22.02;23.55
51249;BME280;39642;47.556;18.728;2023-02-11T02:39:00;101468.09;;;22.02;23.56
51249;BME280;39642;47.556;18.728;2023-02-11T02:41:31;101465.53;;;22.00;23.64
51249;BME280;39642;47.556;18.728;2023-02-11T02:43:58;101469.09;;;21.99;23.55
51249;BME280;39642;47.556;18.728;2023-02-11T02:46:28;101463.84;;;21.98;23.58
51249;BME280;39642;47.556;18.728;2023-02-11T02:48:55;101467.37;;;21.98;23.44
51249;BME280;39642;47.556;18.728;2023-02-11T02:54:31;101458.59;;;21.96;23.50
51249;BME280;39642;47.556;18.728;2023-02-11T03:05:22;101446.38;;;21.92;23.66
51249;BME280;39642;47.556;18.728;2023-02-11T03:08:06;101446.41;;;21.91;23.48
51249;BME280;39642;47.556;18.728;2023-02-11T03:10:45;101441.19;;;21.89;23.53
51249;BME280;39642;47.556;18.728;2023-02-11T03:13:15;101443.00;;;21.89;23.24
51249;BME280;39642;47.556;18.728;2023-02-11T03:15:45;101442.09;;;21.88;23.71
51249;BME280;39642;47.556;18.728;2023-02-11T03:18:16;101427.13;;;21.87;23.33
51249;BME280;39642;47.556;18.728;2023-02-11T03:20:44;101440.44;;;21.86;23.58
51249;BME280;39642;47.556;18.728;2023-02-11T03:26:00;101445.75;;;21.86;23.51
51249;BME280;39642;47.556;18.728;2023-02-11T03:28:44;101443.94;;;21.86;23.48
51249;BME280;39642;47.556;18.728;2023-02-11T03:36:18;101419.22;;;21.86;23.21
51249;BME280;39642;47.556;18.728;2023-02-11T03:38:48;101421.94;;;21.84;22.93
51249;BME280;39642;47.556;18.728;2023-02-11T03:41:18;101421.03;;;21.85;23.49
51249;BME280;39642;47.556;18.728;2023-02-11T03:43:55;101416.63;;;21.84;23.43
51249;BME280;39642;47.556;18.728;2023-02-11T03:46:28;101410.41;;;21.85;23.37
51249;BME280;39642;47.556;18.728;2023-02-11T03:49:01;101403.37;;;21.84;23.38
51249;BME280;39642;47.556;18.728;2023-02-11T03:51:30;101394.56;;;21.83;23.27
51249;BME280;39642;47.556;18.728;2023-02-11T03:53:59;101392.75;;;21.84;23.45
51249;BME280;39642;47.556;18.728;2023-02-11T03:56:30;101386.53;;;21.85;23.47
51249;BME280;39642;47.556;18.728;2023-02-11T03:58:57;101389.19;;;21.85;23.42
51249;BME280;39642;47.556;18.728;2023-02-11T04:01:23;101381.25;;;21.85;23.28
51249;BME280;39642;47.556;18.728;2023-02-11T04:03:49;101375.94;;;21.85;23.17
51249;BME280;39642;47.556;18.728;2023-02-11T04:06:15;101375.94;;;21.85;23.23
51249;BME280;39642;47.556;18.728;2023-02-11T04:08:41;101371.50;;;21.86;23.37
51249;BME280;39642;47.556;18.728;2023-02-11T04:11:07;101376.84;;;21.84;23.28
51249;BME280;39642;47.556;18.728;2023-02-11T04:13:32;101378.59;;;21.85;23.11
51249;BME280;39642;47.556;18.728;2023-02-11T04:15:58;101375.94;;;21.85;23.23
51249;BME280;39642;47.556;18.728;2023-02-11T04:18:24;101364.53;;;21.83;23.18
51249;BME280;39642;47.556;18.728;2023-02-11T04:20:50;101370.62;;;21.85;23.24
51249;BME280;39642;47.556;18.728;2023-02-11T04:23:16;101362.72;;;21.83;23.11
51249;BME280;39642;47.556;18.728;2023-02-11T04:25:42;101365.34;;;21.85;23.12
51249;BME280;39642;47.556;18.728;2023-02-11T04:28:08;101362.72;;;21.83;22.78
51249;BME280;39642;47.556;18.728;2023-02-11T04:30:33;101365.37;;;21.83;23.33
51249;BME280;39642;47.556;18.728;2023-02-11T04:32:59;101360.09;;;21.83;22.99
51249;BME280;39642;47.556;18.728;2023-02-11T04:35:25;101356.56;;;21.83;22.79
51249;BME280;39642;47.556;18.728;2023-02-11T04:37:51;101368.03;;;21.83;23.07
51249;BME280;39642;47.556;18.728;2023-02-11T04:40:17;101362.69;;;21.85;23.13
51249;BME280;39642;47.556;18.728;2023-02-11T04:42:43;101358.28;;;21.84;23.07
51249;BME280;39642;47.556;18.728;2023-02-11T04:45:09;101360.94;;;21.84;22.89
51249;BME280;39642;47.556;18.728;2023-02-11T04:47:35;101358.28;;;21.84;22.99
51249;BME280;39642;47.556;18.728;2023-02-11T04:50:02;101349.47;;;21.83;22.89
51249;BME280;39642;47.556;18.728;2023-02-11T04:52:28;101349.47;;;21.83;23.21
51249;BME280;39642;47.556;18.728;2023-02-11T04:54:54;101351.28;;;21.83;22.88
51249;BME280;39642;47.556;18.728;2023-02-11T04:57:20;101361.88;;;21.83;23.03
51249;BME280;39642;47.556;18.728;2023-02-11T04:59:46;101357.44;;;21.83;23.00
51249;BME280;39642;47.556;18.728;2023-02-11T05:02:12;101353.91;;;21.83;23.04
51249;BME280;39642;47.556;18.728;2023-02-11T05:04:38;101356.56;;;21.83;22.86
51249;BME280;39642;47.556;18.728;2023-02-11T05:07:04;101360.09;;;21.83;23.00
51249;BME280;39642;47.556;18.728;2023-02-11T05:09:30;101360.09;;;21.83;23.10
51249;BME280;39642;47.556;18.728;2023-02-11T05:11:56;101353.91;;;21.83;23.06
51249;BME280;39642;47.556;18.728;2023-02-11T05:14:22;101349.47;;;21.83;22.83
51249;BME280;39642;47.556;18.728;2023-02-11T05:16:47;101356.56;;;21.83;22.96
51249;BME280;39642;47.556;18.728;2023-02-11T05:19:13;101349.47;;;21.83;22.99
51249;BME280;39642;47.556;18.728;2023-02-11T05:21:39;101353.91;;;21.83;22.79
51249;BME280;39642;47.556;18.728;2023-02-11T05:24:06;101360.09;;;21.83;22.83
51249;BME280;39642;47.556;18.728;2023-02-11T05:26:32;101356.56;;;21.83;23.07
51249;BME280;39642;47.556;18.728;2023-02-11T05:28:58;101348.63;;;21.83;22.84
51249;BME280;39642;47.556;18.728;2023-02-11T05:31:24;101347.75;;;21.82;22.90
51249;BME280;39642;47.556;18.728;2023-02-11T05:33:50;101341.59;;;21.82;22.92
51249;BME280;39642;47.556;18.728;2023-02-11T05:36:16;101338.94;;;21.82;22.84
51249;BME280;39642;47.556;18.728;2023-02-11T05:38:42;101331.84;;;21.82;22.77
51249;BME280;39642;47.556;18.728;2023-02-11T05:41:09;101339.81;;;21.82;22.83
51249;BME280;39642;47.556;18.728;2023-02-11T05:43:35;101330.06;;;21.83;22.92
51249;BME280;39642;47.556;18.728;2023-02-11T05:46:05;101324.81;;;21.81;22.93
51249;BME280;39642;47.556;18.728;2023-02-11T05:48:31;101334.50;;;21.82;22.78
51249;BME280;39642;47.556;18.728;2023-02-11T05:50:57;101333.66;;;21.82;23.01
51249;BME280;39642;47.556;18.728;2023-02-11T05:53:23;101341.59;;;21.82;22.84
51249;BME280;39642;47.556;18.728;2023-02-11T05:55:49;101343.38;;;21.81;22.87
51249;BME280;39642;47.556;18.728;2023-02-11T05:58:14;101338.06;;;21.81;22.72
51249;BME280;39642;47.556;18.728;2023-02-11T06:00:40;101355.72;;;21.82;22.82
51249;BME280;39642;47.556;18.728;2023-02-11T06:03:06;101338.06;;;21.81;22.75
51249;BME280;39642;47.556;18.728;2023-02-11T06:05:32;101346.91;;;21.82;22.86
51249;BME280;39642;47.556;18.728;2023-02-11T06:07:58;101345.97;;;21.83;22.89
51249;BME280;39642;47.556;18.728;2023-02-11T06:10:25;101341.59;;;21.82;22.78
51249;BME280;39642;47.556;18.728;2023-02-11T06:12:51;101336.31;;;21.82;22.49
51249;BME280;39642;47.556;18.728;2023-02-11T06:15:17;101339.81;;;21.82;22.60
51249;BME280;39642;47.556;18.728;2023-02-11T06:17:43;101334.50;;;21.82;22.63
51249;BME280;39642;47.556;18.728;2023-02-11T06:20:09;101325.69;;;21.82;22.79
51249;BME280;39642;47.556;18.728;2023-02-11T06:22:35;101328.34;;;21.82;22.79
51249;BME280;39642;47.556;18.728;2023-02-11T06:25:02;101322.16;;;21.81;22.81
51249;BME280;39642;47.556;18.728;2023-02-11T06:27:28;101325.69;;;21.82;22.51
51249;BME280;39642;47.556;18.728;2023-02-11T06:29:54;101329.19;;;21.82;22.75
51249;BME280;39642;47.556;18.728;2023-02-11T06:32:20;101324.75;;;21.83;22.86
51249;BME280;39642;47.556;18.728;2023-02-11T06:34:46;101335.34;;;21.83;22.63
51249;BME280;39642;47.556;18.728;2023-02-11T06:37:12;101331.78;;;21.84;22.76
51249;BME280;39642;47.556;18.728;2023-02-11T06:39:38;101334.41;;;21.84;22.69
51249;BME280;39642;47.556;18.728;2023-02-11T06:42:04;101322.91;;;21.85;22.67
51249;BME280;39642;47.556;18.728;2023-02-11T06:46:56;101326.41;;;21.86;22.63
51249;BME280;39642;47.556;18.728;2023-02-11T06:49:22;101326.41;;;21.86;22.74
51249;BME280;39642;47.556;18.728;2023-02-11T06:51:48;101324.63;;;21.86;22.56
51249;BME280;39642;47.556;18.728;2023-02-11T06:54:14;101330.84;;;21.85;22.70
51249;BME280;39642;47.556;18.728;2023-02-11T06:56:40;101329.06;;;21.86;22.52
51249;BME280;39642;47.556;18.728;2023-02-11T06:59:06;101333.50;;;21.85;22.68
51249;BME280;39642;47.556;18.728;2023-02-11T07:01:32;101329.91;;;21.86;22.61
51249;BME280;39642;47.556;18.728;2023-02-11T07:03:58;101321.16;;;21.84;22.69
51249;BME280;39642;47.556;18.728;2023-02-11T07:06:25;101318.47;;;21.86;22.60
51249;BME280;39642;47.556;18.728;2023-02-11T07:08:54;101326.41;;;21.86;22.74
51249;BME280;39642;47.556;18.728;2023-02-11T07:11:23;101325.56;;;21.85;22.66
51249;BME280;39642;47.556;18.728;2023-02-11T07:13:50;101326.41;;;21.86;22.80
51249;BME280;39642;47.556;18.728;2023-02-11T07:16:17;101322.91;;;21.85;22.61
51249;BME280;39642;47.556;18.728;2023-02-11T07:18:44;101314.00;;;21.86;22.69
51249;BME280;39642;47.556;18.728;2023-02-11T07:21:13;101323.75;;;21.86;22.66
51249;BME280;39642;47.556;18.728;2023-02-11T07:23:39;101320.19;;;21.87;22.58
51249;BME280;39642;47.556;18.728;2023-02-11T07:26:07;101322.84;;;21.87;22.56
51249;BME280;39642;47.556;18.728;2023-02-11T07:28:34;101324.56;;;21.88;22.65
51249;BME280;39642;47.556;18.728;2023-02-11T07:31:11;101319.22;;;21.89;22.68
51249;BME280;39642;47.556;18.728;2023-02-11T07:33:37;101311.25;;;21.89;22.60
51249;BME280;39642;47.556;18.728;2023-02-11T07:36:04;101317.41;;;21.90;22.39
51249;BME280;39642;47.556;18.728;2023-02-11T07:38:32;101316.56;;;21.89;22.56
51249;BME280;39642;47.556;18.728;2023-02-11T07:41:04;101315.63;;;21.90;22.39
51249;BME280;39642;47.556;18.728;2023-02-11T07:43:31;101316.47;;;21.91;22.19
51249;BME280;39642;47.556;18.728;2023-02-11T07:45:57;101312.06;;;21.91;21.67
51249;BME280;39642;47.556;18.728;2023-02-11T07:48:23;101310.22;;;21.93;21.05
51249;BME280;39642;47.556;18.728;2023-02-11T07:50:49;101307.56;;;21.93;21.01
51249;BME280;39642;47.556;18.728;2023-02-11T07:53:15;101307.47;;;21.95;20.70
51249;BME280;39642;47.556;18.728;2023-02-11T07:55:42;101305.72;;;21.95;20.63
51249;BME280;39642;47.556;18.728;2023-02-11T07:58:08;101303.91;;;21.96;20.59
51249;BME280;39642;47.556;18.728;2023-02-11T08:00:34;101299.41;;;21.98;20.58
51249;BME280;39642;47.556;18.728;2023-02-11T08:03:00;101290.53;;;21.99;20.54
51249;BME280;39642;47.556;18.728;2023-02-11T08:05:26;101289.59;;;22.00;20.55
51249;BME280;39642;47.556;18.728;2023-02-11T08:07:52;101287.72;;;22.02;20.57
51249;BME280;39642;47.556;18.728;2023-02-11T08:10:19;101291.28;;;22.02;20.54
51249;BME280;39642;47.556;18.728;2023-02-11T08:12:45;101296.50;;;22.04;20.60
51249;BME280;39642;47.556;18.728;2023-02-11T08:15:11;101297.38;;;22.04;20.69
51249;BME280;39642;47.556;18.728;2023-02-11T08:17:37;101299.09;;;22.06;20.65
51249;BME280;39642;47.556;18.728;2023-02-11T08:20:04;101295.53;;;22.07;20.63
51249;BME280;39642;47.556;18.728;2023-02-11T08:22:32;101291.94;;;22.08;20.72
51249;BME280;39642;47.556;18.728;2023-02-11T08:24:59;101288.44;;;22.07;20.66
51249;BME280;39642;47.556;18.728;2023-02-11T08:27:25;101290.22;;;22.07;20.73
51249;BME280;39642;47.556;18.728;2023-02-11T08:29:54;101292.78;;;22.08;20.77
51249;BME280;39642;47.556;18.728;2023-02-11T08:32:20;101295.38;;;22.10;20.83
51249;BME280;39642;47.556;18.728;2023-02-11T08:34:50;101299.75;;;22.11;20.83
51249;BME280;39642;47.556;18.728;2023-02-11T08:37:17;101297.09;;;22.11;20.85
51249;BME280;39642;47.556;18.728;2023-02-11T08:39:43;101295.34;;;22.11;20.89
51249;BME280;39642;47.556;18.728;2023-02-11T08:42:12;101294.41;;;22.12;21.08
51249;BME280;39642;47.556;18.728;2023-02-11T08:44:40;101290.87;;;22.12;20.89
51249;BME280;39642;47.556;18.728;2023-02-11T08:47:06;101286.44;;;22.12;20.96
51249;BME280;39642;47.556;18.728;2023-02-11T08:49:31;101289.09;;;22.12;20.96
51249;BME280;39642;47.556;18.728;2023-02-11T08:51:59;101284.63;;;22.13;20.96
51249;BME280;39642;47.556;18.728;2023-02-11T08:54:29;101286.38;;;22.14;21.04
51249;BME280;39642;47.556;18.728;2023-02-11T08:56:55;101287.25;;;22.14;21.06
51249;BME280;39642;47.556;18.728;2023-02-11T08:59:21;101281.06;;;22.14;21.11
51249;BME280;39642;47.556;18.728;2023-02-11T09:01:47;101282.78;;;22.15;21.24
51249;BME280;39642;47.556;18.728;2023-02-11T09:04:13;101273.97;;;22.14;21.66
51249;BME280;39642;47.556;18.728;2023-02-11T09:06:39;101270.38;;;22.15;22.09
51249;BME280;39642;47.556;18.728;2023-02-11T09:09:05;101270.38;;;22.15;21.87
51249;BME280;39642;47.556;18.728;2023-02-11T09:11:33;101271.31;;;22.14;21.47
51249;BME280;39642;47.556;18.728;2023-02-11T09:14:00;101272.19;;;22.15;21.54
51249;BME280;39642;47.556;18.728;2023-02-11T09:16:28;101266.88;;;22.15;21.73
51249;BME280;39642;47.556;18.728;2023-02-11T09:18:59;101266.88;;;22.15;21.89
51249;BME280;39642;47.556;18.728;2023-02-11T09:21:25;101264.22;;;22.15;22.26
51249;BME280;39642;47.556;18.728;2023-02-11T09:23:52;101267.81;;;22.14;22.18
51249;BME280;39642;47.556;18.728;2023-02-11T09:26:29;101265.16;;;22.14;22.18
51249;BME280;39642;47.556;18.728;2023-02-11T09:28:55;101259.91;;;22.12;21.83
51249;BME280;39642;47.556;18.728;2023-02-11T09:31:24;101258.13;;;22.13;21.74
51249;BME280;39642;47.556;18.728;2023-02-11T09:33:53;101259.84;;;22.14;21.89
51249;BME280;39642;47.556;18.728;2023-02-11T09:36:24;101262.50;;;22.14;22.09
51249;BME280;39642;47.556;18.728;2023-02-11T09:38:52;101259.84;;;22.14;21.97
51249;BME280;39642;47.556;18.728;2023-02-11T09:41:24;101261.56;;;22.15;21.88
51249;BME280;39642;47.556;18.728;2023-02-11T09:43:59;101254.53;;;22.14;22.01
51249;BME280;39642;47.556;18.728;2023-02-11T09:46:33;101255.41;;;22.14;21.82
51249;BME280;39642;47.556;18.728;2023-02-11T09:49:01;101249.16;;;22.15;21.38
51249;BME280;39642;47.556;18.728;2023-02-11T09:51:57;101249.16;;;22.15;21.33
51249;BME280;39642;47.556;18.728;2023-02-11T09:54:38;101249.09;;;22.17;21.39
51249;BME280;39642;47.556;18.728;2023-02-11T09:57:08;101246.41;;;22.18;21.23
51249;BME280;39642;47.556;18.728;2023-02-11T09:59:35;101247.25;;;22.19;21.54
51249;BME280;39642;47.556;18.728;2023-02-11T10:02:04;101253.41;;;22.19;21.45
51249;BME280;39642;47.556;18.728;2023-02-11T10:10:13;101243.63;;;22.21;21.35
51249;BME280;39642;47.556;18.728;2023-02-11T10:18:05;101229.38;;;22.24;21.46
51249;BME280;39642;47.556;18.728;2023-02-11T10:20:38;101219.59;;;22.24;21.60
51249;BME280;39642;47.556;18.728;2023-02-11T10:23:13;101216.00;;;22.27;21.56
51249;BME280;39642;47.556;18.728;2023-02-11T10:25:45;101216.84;;;22.28;21.58
51249;BME280;39642;47.556;18.728;2023-02-11T10:28:22;101208.88;;;22.28;21.72
51249;BME280;39642;47.556;18.728;2023-02-11T10:31:08;101201.78;;;22.28;21.77
51249;BME280;39642;47.556;18.728;2023-02-11T10:36:13;101199.06;;;22.30;21.89
51249;BME280;39642;47.556;18.728;2023-02-11T10:38:39;101195.56;;;22.29;21.80
51249;BME280;39642;47.556;18.728;2023-02-11T10:41:05;101189.37;;;22.29;21.87
51249;BME280;39642;47.556;18.728;2023-02-11T10:43:32;101190.25;;;22.29;21.83
51249;BME280;39642;47.556;18.728;2023-02-11T10:46:01;101196.41;;;22.30;22.18
51249;BME280;39642;47.556;18.728;2023-02-11T10:48:42;101185.78;;;22.30;22.19
51249;BME280;39642;47.556;18.728;2023-02-11T10:53:38;101183.16;;;22.30;22.01
51249;BME280;39642;47.556;18.728;2023-02-11T10:56:06;101177.91;;;22.28;22.22
51249;BME280;39642;47.556;18.728;2023-02-11T10:58:36;101178.84;;;22.27;22.21
51249;BME280;39642;47.556;18.728;2023-02-11T11:01:05;101173.59;;;22.26;22.56
51249;BME280;39642;47.556;18.728;2023-02-11T11:03:45;101170.13;;;22.23;22.75
51249;BME280;39642;47.556;18.728;2023-02-11T11:06:12;101156.94;;;22.22;22.44
51249;BME280;39642;47.556;18.728;2023-02-11T11:11:16;101170.25;;;22.20;22.52
51249;BME280;39642;47.556;18.728;2023-02-11T11:16:21;101154.41;;;22.19;22.81
51249;BME280;39642;47.556;18.728;2023-02-11T11:19:35;101140.34;;;22.17;22.85
51249;BME280;39642;47.556;18.728;2023-02-11T11:21:46;101135.97;;;22.16;23.02
51249;BME280;39642;47.556;18.728;2023-02-11T11:24:38;101141.28;;;22.16;22.99
51249;BME280;39642;47.556;18.728;2023-02-11T11:27:20;101130.66;;;22.16;22.80
51249;BME280;39642;47.556;18.728;2023-02-11T11:29:56;101123.56;;;22.16;22.42
51249;BME280;39642;47.556;18.728;2023-02-11T11:32:25;101118.25;;;22.16;22.04
51249;BME280;39642;47.556;18.728;2023-02-11T11:34:54;101110.22;;;22.18;22.04
51249;BME280;39642;47.556;18.728;2023-02-11T11:37:29;101113.66;;;22.20;21.97
51249;BME280;39642;47.556;18.728;2023-02-11T11:42:39;101103.94;;;22.20;21.87
51249;BME280;39642;47.556;18.728;2023-02-11T11:48:02;101100.31;;;22.23;22.28
51249;BME280;39642;47.556;18.728;2023-02-11T11:53:18;101100.22;;;22.24;21.88
51249;BME280;39642;47.556;18.728;2023-02-11T11:56:17;101096.66;;;22.26;22.14
51249;BME280;39642;47.556;18.728;2023-02-11T11:58:44;101110.75;;;22.26;22.23
51249;BME280;39642;47.556;18.728;2023-02-11T12:04:25;101093.12;;;22.25;21.46
51249;BME280;39642;47.556;18.728;2023-02-11T12:07:16;101082.59;;;22.23;21.78
51249;BME280;39642;47.556;18.728;2023-02-11T12:13:02;101062.34;;;22.21;21.19
51249;BME280;39642;47.556;18.728;2023-02-11T12:16:18;101053.56;;;22.19;21.16
51249;BME280;39642;47.556;18.728;2023-02-11T12:18:47;101056.22;;;22.19;21.16
51249;BME280;39642;47.556;18.728;2023-02-11T12:21:33;101044.81;;;22.17;21.24
51249;BME280;39642;47.556;18.728;2023-02-11T12:27:06;101021.09;;;22.14;21.10
51249;BME280;39642;47.556;18.728;2023-02-11T12:43:43;101014.38;;;22.07;21.22
51249;BME280;39642;47.556;18.728;2023-02-11T12:56:51;100986.25;;;22.02;21.44
51249;BME280;39642;47.556;18.728;2023-02-11T13:01:54;100981.94;;;22.00;21.24
51249;BME280;39642;47.556;18.728;2023-02-11T13:04:40;100966.03;;;22.00;21.18
51249;BME280;39642;47.556;18.728;2023-02-11T13:07:18;100965.09;;;22.01;21.15
51249;BME280;39642;47.556;18.728;2023-02-11T13:10:04;100959.78;;;22.01;21.14
51249;BME280;39642;47.556;18.728;2023-02-11T13:12:32;100966.91;;;22.00;21.08
51249;BME280;39642;47.556;18.728;2023-02-11T13:15:19;100961.59;;;22.00;21.08
51249;BME280;39642;47.556;18.728;2023-02-11T13:17:53;100963.28;;;22.01;21.04
51249;BME280;39642;47.556;18.728;2023-02-11T13:20:58;100958.84;;;22.02;21.14
51249;BME280;39642;47.556;18.728;2023-02-11T13:23:33;100957.94;;;22.03;21.10
51249;BME280;39642;47.556;18.728;2023-02-11T13:26:20;100962.22;;;22.06;22.08
51249;BME280;39642;47.556;18.728;2023-02-11T13:28:56;100949.81;;;22.06;21.38
51249;BME280;39642;47.556;18.728;2023-02-11T13:31:31;100950.69;;;22.07;21.15
51249;BME280;39642;47.556;18.728;2023-02-11T13:33:57;100954.22;;;22.07;21.12
51249;BME280;39642;47.556;18.728;2023-02-11T13:36:27;100948.06;;;22.07;21.11
51249;BME280;39642;47.556;18.728;2023-02-11T13:38:57;100945.41;;;22.07;21.13
51249;BME280;39642;47.556;18.728;2023-02-11T13:41:33;100945.41;;;22.07;21.67
51249;BME280;39642;47.556;18.728;2023-02-11T13:44:03;100946.31;;;22.06;21.42
51249;BME280;39642;47.556;18.728;2023-02-11T13:49:39;100947.25;;;22.04;21.28
51249;BME280;39642;47.556;18.728;2023-02-11T13:52:22;100951.63;;;22.06;21.31
51249;BME280;39642;47.556;18.728;2023-02-11T13:54:50;100941.06;;;22.04;21.34
51249;BME280;39642;47.556;18.728;2023-02-11T13:57:25;100948.16;;;22.03;21.20
51249;BME280;39642;47.556;18.728;2023-02-11T13:59:54;100948.16;;;22.03;21.20
51249;BME280;39642;47.556;18.728;2023-02-11T14:02:33;100937.63;;;22.02;21.29
51249;BME280;39642;47.556;18.728;2023-02-11T14:05:22;100928.81;;;22.01;21.27
51249;BME280;39642;47.556;18.728;2023-02-11T14:16:16;100928.13;;;21.98;21.24
51249;BME280;39642;47.556;18.728;2023-02-11T14:29:29;100973.25;;;21.96;21.07
51249;BME280;39642;47.556;18.728;2023-02-11T14:34:59;100955.50;;;21.98;21.17
51249;BME280;39642;47.556;18.728;2023-02-11T14:40:40;100958.09;;;22.00;21.29
51249;BME280;39642;47.556;18.728;2023-02-11T14:43:28;100952.78;;;22.00;21.36
51249;BME280;39642;47.556;18.728;2023-02-11T14:45:57;100941.22;;;22.01;21.38
51249;BME280;39642;47.556;18.728;2023-02-11T14:48:32;100942.06;;;22.01;21.98
51249;BME280;39642;47.556;18.728;2023-02-11T14:51:03;100942.06;;;22.01;21.88
51249;BME280;39642;47.556;18.728;2023-02-11T14:53:31;100936.78;;;22.01;21.60
51249;BME280;39642;47.556;18.728;2023-02-11T14:55:58;100924.47;;;22.00;22.09